createdAt,value
2022-10-02T00:01:19.573Z,98335.59
2022-10-02T00:03:48.843Z,98329.28
2022-10-02T00:06:21.327Z,98329.66
2022-10-02T00:08:51.916Z,98339.91
2022-10-02T00:11:24.806Z,98316.44
2022-10-02T00:13:55.469Z,98327.66
2022-10-02T00:16:32.140Z,98336.94
2022-10-02T00:18:59.392Z,98319.38
2022-10-02T00:21:38.794Z,98333.19
2022-10-02T00:24:11.887Z,98337.88
2022-10-02T00:26:46.837Z,98335.47
2022-10-02T00:29:28.990Z,98328.19
2022-10-02T00:32:10.612Z,98339.22
2022-10-02T00:34:46.812Z,98340.22
2022-10-02T00:37:20.943Z,98341.22
2022-10-02T00:40:02.071Z,98340.94
2022-10-02T00:42:57.766Z,98346.25
2022-10-02T00:45:50.579Z,98331.25
2022-10-02T00:48:40.872Z,98331.25
2022-10-02T00:51:20.261Z,98339.16
2022-10-02T00:53:54.272Z,98338.53
2022-10-02T00:56:31.303Z,98345.66
2022-10-02T00:59:39.850Z,98347.03
2022-10-02T01:02:14.593Z,98341.88
2022-10-02T01:04:42.476Z,98345.66
2022-10-02T01:07:13.305Z,98346.81
2022-10-02T01:09:42.039Z,98347.50
2022-10-02T01:12:09.861Z,98347.41
2022-10-02T01:14:39.254Z,98344.44
2022-10-02T01:17:20.488Z,98338.47
2022-10-02T01:19:48.020Z,98347.94
2022-10-02T01:22:23.688Z,98322.72
2022-10-02T01:24:53.058Z,98334.94
2022-10-02T01:27:21.360Z,98342.59
2022-10-02T01:29:55.708Z,98353.84
2022-10-02T01:32:26.123Z,98354.16
2022-10-02T01:34:54.220Z,98350.16
2022-10-02T01:37:22.787Z,98357.25
2022-10-02T01:39:50.358Z,98355.66
2022-10-02T01:42:21.499Z,98355.41
2022-10-02T01:44:49.070Z,98366.78
2022-10-02T01:47:20.008Z,98369.47
2022-10-02T01:50:00.826Z,98373.38
2022-10-02T01:52:41.178Z,98364.88
2022-10-02T01:55:22.545Z,98364.47
2022-10-02T01:58:11.814Z,98366.78
2022-10-02T02:00:51.795Z,98349.25
2022-10-02T02:03:24.306Z,98366.13
2022-10-02T02:05:56.346Z,98365.09
2022-10-02T02:08:31.945Z,98363.88
2022-10-02T02:11:10.497Z,98367.75
2022-10-02T02:13:45.794Z,98357.41
2022-10-02T02:16:22.251Z,98362.03
2022-10-02T02:18:54.087Z,98357.41
2022-10-02T02:21:25.178Z,98350.28
2022-10-02T02:23:54.982Z,98356.31
2022-10-02T02:26:24.860Z,98361.25
2022-10-02T02:28:57.663Z,98360.84
2022-10-02T02:31:31.225Z,98370.44
2022-10-02T02:34:01.671Z,98368.69
2022-10-02T02:36:33.547Z,98371.00
2022-10-02T02:39:06.088Z,98357.03
2022-10-02T02:41:35.695Z,98367.63
2022-10-02T02:44:10.487Z,98361.94
2022-10-02T02:47:10.828Z,98366.03
2022-10-02T02:49:49.529Z,98359.97
2022-10-02T02:52:20.891Z,98347.59
2022-10-02T02:54:54.202Z,98368.34
2022-10-02T02:57:27.760Z,98358.31
2022-10-02T03:00:00.876Z,98367.22
2022-10-02T03:02:28.276Z,98357.94
2022-10-02T03:04:55.531Z,98366.41
2022-10-02T03:07:22.925Z,98368.34
2022-10-02T03:10:01.654Z,98373.47
2022-10-02T03:12:48.592Z,98360.94
2022-10-02T03:15:35.747Z,98357.28
2022-10-02T03:18:20.268Z,98364.47
2022-10-02T03:20:57.353Z,98364.69
2022-10-02T03:23:30.063Z,98374.34
2022-10-02T03:26:03.230Z,98372.88
2022-10-02T03:28:54.520Z,98378.16
2022-10-02T03:31:25.146Z,98382.16
2022-10-02T03:33:54.407Z,98370.50
2022-10-02T03:36:22.629Z,98373.31
2022-10-02T03:39:06.489Z,98386.47
2022-10-02T03:41:39.485Z,98383.72
2022-10-02T03:44:06.843Z,98381.78
2022-10-02T03:46:35.801Z,98338.69
2022-10-02T03:49:03.401Z,98369.59
2022-10-02T03:51:31.092Z,98372.16
2022-10-02T03:53:58.275Z,98375.69
2022-10-02T03:56:36.670Z,98375.50
2022-10-02T03:59:10.701Z,98370.31
2022-10-02T04:01:48.195Z,98383.44
2022-10-02T04:04:21.728Z,98383.19
2022-10-02T04:06:52.021Z,98387.59
2022-10-02T04:09:25.817Z,98389.56
2022-10-02T04:11:59.765Z,98389.19
2022-10-02T04:14:33.957Z,98390.59
2022-10-02T04:17:06.087Z,98397.03
2022-10-02T04:19:39.172Z,98386.63
2022-10-02T04:22:11.928Z,98376.28
2022-10-02T04:24:45.697Z,98371.75
2022-10-02T04:27:17.438Z,98380.59
2022-10-02T04:29:52.326Z,98391.69
2022-10-02T04:32:26.770Z,98399.81
2022-10-02T04:34:54.756Z,98394.00
2022-10-02T04:37:44.723Z,98400.63
2022-10-02T04:40:30.643Z,98410.06
2022-10-02T04:43:14.454Z,98403.81
2022-10-02T04:46:07.485Z,98408.63
2022-10-02T04:49:14.825Z,98398.56
2022-10-02T04:52:00.934Z,98391.88
2022-10-02T04:54:49.802Z,98393.19
2022-10-02T04:57:31.275Z,98397.34
2022-10-02T05:00:07.111Z,98391.63
2022-10-02T05:03:01.387Z,98394.94
2022-10-02T05:05:46.093Z,98390.84
2022-10-02T05:08:42.378Z,98388.28
2022-10-02T05:11:22.968Z,98405.19
2022-10-02T05:14:11.420Z,98397.72
2022-10-02T05:17:03.918Z,98404.16
2022-10-02T05:19:50.970Z,98400.81
2022-10-02T05:22:42.440Z,98398.13
2022-10-02T05:25:23.674Z,98403.63
2022-10-02T05:28:03.724Z,98400.06
2022-10-02T05:30:38.401Z,98386.25
2022-10-02T05:33:32.395Z,98396.91
2022-10-02T05:36:25.750Z,98405.63
2022-10-02T05:39:17.646Z,98396.00
2022-10-02T05:41:52.451Z,98395.59
2022-10-02T05:44:26.730Z,98411.09
2022-10-02T05:47:01.864Z,98404.41
2022-10-02T05:49:35.009Z,98403.25
2022-10-02T05:52:06.961Z,98402.88
2022-10-02T05:54:47.101Z,98387.13
2022-10-02T05:57:21.544Z,98395.50
2022-10-02T05:59:59.319Z,98402.22
2022-10-02T06:02:38.809Z,98404.94
2022-10-02T06:05:15.376Z,98400.78
2022-10-02T06:07:46.294Z,98399.91
2022-10-02T06:10:18.738Z,98394.53
2022-10-02T06:12:52.459Z,98398.50
2022-10-02T06:15:25.676Z,98405.38
2022-10-02T06:17:58.311Z,98422.91
2022-10-02T06:20:30.740Z,98417.63
2022-10-02T06:23:04.080Z,98418.69
2022-10-02T06:25:37.544Z,98418.06
2022-10-02T06:28:14.189Z,98431.22
2022-10-02T06:30:46.366Z,98426.88
2022-10-02T06:33:19.308Z,98427.50
2022-10-02T06:36:16.613Z,98417.28
2022-10-02T06:39:02.437Z,98432.09
2022-10-02T06:41:40.573Z,98426.44
2022-10-02T06:44:17.816Z,98425.47
2022-10-02T06:46:55.325Z,98430.75
2022-10-02T06:49:39.678Z,98420.19
2022-10-02T06:52:17.099Z,98433.41
2022-10-02T06:55:01.164Z,98431.41
2022-10-02T06:57:41.458Z,98435.94
2022-10-02T07:00:16.491Z,98427.47
2022-10-02T07:03:18.991Z,98428.38
2022-10-02T07:06:10.915Z,98433.50
2022-10-02T07:09:03.415Z,98431.03
2022-10-02T07:11:35.935Z,98440.66
2022-10-02T07:14:22.715Z,98443.91
2022-10-02T07:17:11.119Z,98432.56
2022-10-02T07:20:03.308Z,98434.91
2022-10-02T07:22:46.256Z,98436.34
2022-10-02T07:25:34.255Z,98442.84
2022-10-02T07:28:11.170Z,98433.41
2022-10-02T07:30:50.112Z,98433.94
2022-10-02T07:33:29.913Z,98438.81
2022-10-02T07:36:04.115Z,98445.22
2022-10-02T07:38:45.806Z,98447.78
2022-10-02T07:41:49.039Z,98439.03
2022-10-02T07:44:27.654Z,98447.69
2022-10-02T07:47:04.966Z,98440.97
2022-10-02T07:49:50.944Z,98441.88
2022-10-02T07:52:26.997Z,98450.34
2022-10-02T07:55:09.012Z,98446.97
2022-10-02T07:57:45.619Z,98447.41
2022-10-02T08:00:15.175Z,98441.44
2022-10-02T08:02:53.276Z,98436.66
2022-10-02T08:05:24.388Z,98453.25
2022-10-02T08:07:56.617Z,98449.69
2022-10-02T08:10:29.224Z,98454.47
2022-10-02T08:13:07.285Z,98456.66
2022-10-02T08:15:38.764Z,98452.94
2022-10-02T08:18:33.814Z,98456.13
2022-10-02T08:21:03.720Z,98453.56
2022-10-02T08:23:37.847Z,98445.75
2022-10-02T08:26:09.927Z,98457.34
2022-10-02T08:28:43.965Z,98454.47
2022-10-02T08:31:12.628Z,98456.25
2022-10-02T08:33:42.288Z,98452.00
2022-10-02T08:36:44.422Z,98463.78
2022-10-02T08:39:30.494Z,98458.44
2022-10-02T08:42:39.610Z,98456.75
2022-10-02T08:45:24.411Z,98459.47
2022-10-02T08:48:23.746Z,98463.44
2022-10-02T08:51:34.305Z,98458.31
2022-10-02T08:54:26.974Z,98460.38
2022-10-02T08:57:12.804Z,98461.84
2022-10-02T09:00:08.925Z,98472.09
2022-10-02T09:03:21.375Z,98468.09
2022-10-02T09:06:27.100Z,98471.22
2022-10-02T09:12:12.095Z,98458.91
2022-10-02T09:15:05.083Z,98443.47
2022-10-02T09:17:48.617Z,98455.59
2022-10-02T09:20:44.689Z,98452.69
2022-10-02T09:23:49.397Z,98454.09
2022-10-02T09:26:57.966Z,98452.69
2022-10-02T09:29:57.638Z,98457.03
2022-10-02T09:33:17.184Z,98468.38
2022-10-02T09:36:17.379Z,98469.97
2022-10-02T09:39:14.507Z,98476.31
2022-10-02T09:42:11.291Z,98470.91
2022-10-02T09:45:12.751Z,98466.69
2022-10-02T09:48:30.465Z,98472.59
2022-10-02T09:51:40.268Z,98480.06
2022-10-02T09:54:44.676Z,98479.84
2022-10-02T09:57:31.891Z,98477.19
2022-10-02T10:00:26.917Z,98459.88
2022-10-02T10:03:37.220Z,98464.44
2022-10-02T10:06:40.332Z,98457.56
2022-10-02T10:09:41.765Z,98453.59
2022-10-02T10:12:37.152Z,98449.69
2022-10-02T10:15:42.187Z,98458.41
2022-10-02T10:18:56.502Z,98458.69
2022-10-02T10:21:59.206Z,98455.63
2022-10-02T10:25:17.254Z,98456.16
2022-10-02T10:28:08.297Z,98451.94
2022-10-02T10:31:11.185Z,98449.25
2022-10-02T10:34:11.311Z,98443.78
2022-10-02T10:37:13.739Z,98444.34
2022-10-02T10:40:21.342Z,98438.59
2022-10-02T10:43:16.878Z,98431.75
2022-10-02T10:46:10.183Z,98428.47
2022-10-02T10:49:00.706Z,98437.19
2022-10-02T10:51:33.989Z,98443.56
2022-10-02T10:54:47.411Z,98438.47
2022-10-02T10:57:41.909Z,98432.97
2022-10-02T11:00:20.081Z,98434.22
2022-10-02T11:03:12.989Z,98420.75
2022-10-02T11:06:22.250Z,98426.66
2022-10-02T11:09:26.552Z,98426.09
2022-10-02T11:12:14.535Z,98421.34
2022-10-02T11:14:59.464Z,98422.34
2022-10-02T11:17:44.451Z,98420.56
2022-10-02T11:20:31.809Z,98417.53
2022-10-02T11:23:17.957Z,98418.94
2022-10-02T11:26:13.974Z,98412.22
2022-10-02T11:29:06.691Z,98416.41
2022-10-02T11:32:03.909Z,98424.31
2022-10-02T11:35:06.807Z,98413.06
2022-10-02T11:37:49.859Z,98406.94
2022-10-02T11:40:53.771Z,98406.13
2022-10-02T11:43:46.981Z,98409.22
2022-10-02T11:46:42.461Z,98401.59
2022-10-02T11:49:36.007Z,98410.69
2022-10-02T11:52:38.123Z,98400.09
2022-10-02T11:55:22.419Z,98397.47
2022-10-02T11:58:01.032Z,98400.78
2022-10-02T12:00:47.755Z,98400.28
2022-10-02T12:03:24.967Z,98385.97
2022-10-02T12:06:03.036Z,98385.47
2022-10-02T12:08:46.965Z,98378.03
2022-10-02T12:11:23.517Z,98383.59
2022-10-02T12:14:03.375Z,98374.59
2022-10-02T12:16:45.937Z,98375.81
2022-10-02T12:19:26.541Z,98365.72
2022-10-02T12:22:26.661Z,98359.16
2022-10-02T12:25:21.925Z,98354.88
2022-10-02T12:28:00.603Z,98360.31
2022-10-02T12:30:36.327Z,98346.81
2022-10-02T12:33:33.060Z,98346.94
2022-10-02T12:36:24.455Z,98354.06
2022-10-02T12:39:04.296Z,98352.22
2022-10-02T12:41:45.979Z,98358.22
2022-10-02T12:44:45.041Z,98357.06
2022-10-02T12:47:40.386Z,98341.88
2022-10-02T12:50:23.502Z,98334.25
2022-10-02T12:53:21.745Z,98335.81
2022-10-02T12:56:06.873Z,98327.09
2022-10-02T12:58:51.262Z,98332.56
2022-10-02T13:02:11.200Z,98323.38
2022-10-02T13:05:23.287Z,98310.41
2022-10-02T13:08:18.287Z,98326.66
2022-10-02T13:10:50.181Z,98327.31
2022-10-02T13:13:35.497Z,98327.66
2022-10-02T13:16:08.662Z,98334.97
2022-10-02T13:19:01.567Z,98318.47
2022-10-02T13:21:40.416Z,98325.31
2022-10-02T13:24:23.649Z,98320.25
2022-10-02T13:26:57.096Z,98321.50
2022-10-02T13:29:56.493Z,98312.22
2022-10-02T13:32:45.666Z,98314.78
2022-10-02T13:35:36.130Z,98301.78
2022-10-02T13:38:19.680Z,98302.00
2022-10-02T13:40:53.498Z,98298.44
2022-10-02T13:43:34.661Z,98298.63
2022-10-02T13:46:13.055Z,98287.56
2022-10-02T13:48:55.357Z,98280.44
2022-10-02T13:51:31.884Z,98276.47
2022-10-02T13:54:14.381Z,98274.06
2022-10-02T13:56:50.979Z,98272.47
2022-10-02T13:59:31.536Z,98269.13
2022-10-02T14:02:30.859Z,98266.31
2022-10-02T14:05:06.109Z,98265.75
2022-10-02T14:07:56.761Z,98259.81
2022-10-02T14:10:35.433Z,98259.63
2022-10-02T14:13:19.049Z,98258.59
2022-10-02T14:15:58.967Z,98256.63
2022-10-02T14:19:01.200Z,98252.09
2022-10-02T14:21:34.208Z,98238.88
2022-10-02T14:25:00.859Z,98244.03
2022-10-02T14:28:06.739Z,98235.72
2022-10-02T14:30:50.648Z,98235.53
2022-10-02T14:33:28.053Z,98231.56
2022-10-02T14:36:03.150Z,98239.69
2022-10-02T14:38:49.529Z,98240.91
2022-10-02T14:41:37.226Z,98229.84
2022-10-02T14:44:30.800Z,98231.00
2022-10-02T14:47:18.661Z,98215.63
2022-10-02T14:50:03.930Z,98233.41
2022-10-02T14:52:52.017Z,98227.28
2022-10-02T14:55:47.790Z,98227.09
2022-10-02T14:58:29.266Z,98233.22
2022-10-02T15:01:17.063Z,98237.34
2022-10-02T15:04:23.125Z,98235.78
2022-10-02T15:07:01.727Z,98222.16
2022-10-02T15:09:35.219Z,98209.31
2022-10-02T15:12:14.880Z,98216.63
2022-10-02T15:14:56.126Z,98214.84
2022-10-02T15:17:57.651Z,98220.41
2022-10-02T15:20:39.137Z,98218.63
2022-10-02T15:23:10.889Z,98220.78
2022-10-02T15:25:58.447Z,98209.91
2022-10-02T15:28:38.282Z,98191.97
2022-10-02T15:31:18.137Z,98203.41
2022-10-02T15:33:53.666Z,98200.06
2022-10-02T15:36:48.977Z,98199.66
2022-10-02T15:39:39.014Z,98183.66
2022-10-02T15:42:08.846Z,98178.16
2022-10-02T15:45:07.772Z,98170.25
2022-10-02T15:47:58.113Z,98166.50
2022-10-02T15:50:38.034Z,98170.66
2022-10-02T15:53:38.759Z,98152.72
2022-10-02T15:56:25.557Z,98161.00
2022-10-02T15:59:08.866Z,98151.16
2022-10-02T16:01:49.500Z,98150.91
2022-10-02T16:04:30.130Z,98139.91
2022-10-02T16:07:41.211Z,98137.09
2022-10-02T16:10:20.808Z,98143.22
2022-10-02T16:13:03.832Z,98141.06
2022-10-02T16:15:46.343Z,98127.63
2022-10-02T16:18:28.645Z,98116.19
2022-10-02T16:21:31.250Z,98109.84
2022-10-02T16:24:26.525Z,98106.72
2022-10-02T16:27:12.624Z,98111.06
2022-10-02T16:29:49.969Z,98121.94
2022-10-02T16:32:31.197Z,98118.97
2022-10-02T16:35:20.435Z,98117.97
2022-10-02T16:37:59.859Z,98105.53
2022-10-02T16:40:36.447Z,98118.38
2022-10-02T16:43:41.537Z,98106.16
2022-10-02T16:46:12.550Z,98114.22
2022-10-02T16:48:48.174Z,98112.66
2022-10-02T16:51:33.375Z,98092.13
2022-10-02T16:54:13.119Z,98095.28
2022-10-02T16:56:51.268Z,98089.97
2022-10-02T16:59:24.279Z,98091.31
2022-10-02T17:02:16.541Z,98077.13
2022-10-02T17:04:54.222Z,98071.81
2022-10-02T17:07:30.030Z,98078.34
2022-10-02T17:10:08.057Z,98073.97
2022-10-02T17:12:47.150Z,98067.09
2022-10-02T17:15:22.107Z,98059.59
2022-10-02T17:18:05.664Z,98058.56
2022-10-02T17:20:41.205Z,98057.41
2022-10-02T17:23:16.859Z,98054.28
2022-10-02T17:25:53.198Z,98033.34
2022-10-02T17:28:26.223Z,98020.72
2022-10-02T17:31:23.713Z,98012.06
2022-10-02T17:33:55.328Z,98012.84
2022-10-02T17:36:33.248Z,98025.69
2022-10-02T17:39:31.609Z,98015.25
2022-10-02T17:42:13.865Z,98021.53
2022-10-02T17:44:54.073Z,98040.47
2022-10-02T17:47:48.279Z,97984.88
2022-10-02T17:50:34.415Z,97971.44
2022-10-02T17:53:30.918Z,97982.50
2022-10-02T17:56:30.600Z,97982.63
2022-10-02T17:59:13.973Z,97980.81
2022-10-02T18:01:51.495Z,97984.75
2022-10-02T18:04:24.483Z,97980.00
2022-10-02T18:07:08.618Z,97974.06
2022-10-02T18:09:47.252Z,97969.34
2022-10-02T18:12:53.599Z,97965.56
2022-10-02T18:15:34.104Z,97966.19
2022-10-02T18:18:17.869Z,97950.41
2022-10-02T18:20:57.287Z,97956.69
2022-10-02T18:23:41.700Z,97935.03
2022-10-02T18:26:26.513Z,97914.16
2022-10-02T18:29:19.717Z,97910.00
2022-10-02T18:32:06.605Z,97909.66
2022-10-02T18:34:57.313Z,97893.50
2022-10-02T18:37:40.795Z,97886.00
2022-10-02T18:40:22.312Z,97875.78
2022-10-02T18:43:13.463Z,97879.53
2022-10-02T18:45:48.454Z,97872.84
2022-10-02T18:48:49.892Z,97848.41
2022-10-02T18:51:34.738Z,97857.50
2022-10-02T18:54:11.807Z,97855.16
2022-10-02T18:56:52.045Z,97853.16
2022-10-02T18:59:30.677Z,97835.41
2022-10-02T19:02:14.345Z,97843.72
2022-10-02T19:04:55.067Z,97836.63
2022-10-02T19:07:29.535Z,97845.09
2022-10-02T19:10:26.360Z,97863.75
2022-10-02T19:12:57.498Z,97865.69
2022-10-02T19:15:28.234Z,97876.72
2022-10-02T19:18:01.127Z,97866.09
2022-10-02T19:20:40.353Z,97833.06
2022-10-02T19:23:09.394Z,97825.19
2022-10-02T19:25:36.596Z,97799.63
2022-10-02T19:28:05.164Z,97791.75
2022-10-02T19:30:34.096Z,97777.00
2022-10-02T19:33:08.748Z,97789.00
2022-10-02T19:35:43.699Z,97774.63
2022-10-02T19:38:28.945Z,97759.50
2022-10-02T19:40:58.674Z,97752.41
2022-10-02T19:43:28.195Z,97755.38
2022-10-02T19:45:59.501Z,97749.66
2022-10-02T19:48:28.728Z,97755.56
2022-10-02T19:50:59.833Z,97765.81
2022-10-02T19:53:33.463Z,97785.84
2022-10-02T19:56:04.784Z,97789.59
2022-10-02T19:58:39.041Z,97814.75
2022-10-02T20:01:15.882Z,97798.06
2022-10-02T20:03:44.597Z,97783.88
2022-10-02T20:06:17.810Z,97803.91
2022-10-02T20:08:49.821Z,97797.03
2022-10-02T20:11:21.464Z,97782.69
2022-10-02T20:13:52.465Z,97788.59
2022-10-02T20:16:41.257Z,97777.97
2022-10-02T20:19:13.693Z,97783.31
2022-10-02T20:21:45.170Z,97767.38
2022-10-02T20:24:19.407Z,97755.22
2022-10-02T20:26:47.889Z,97755.59
2022-10-02T20:29:21.569Z,97747.72
2022-10-02T20:31:53.542Z,97743.78
2022-10-02T20:34:27.432Z,97725.66
2022-10-02T20:37:02.577Z,97725.28
2022-10-02T20:39:35.914Z,97718.00
2022-10-02T20:42:10.053Z,97702.25
2022-10-02T20:44:38.278Z,97678.25
2022-10-02T20:47:37.575Z,97690.25
2022-10-02T20:50:32.823Z,97672.53
2022-10-02T20:53:35.329Z,97666.25
2022-10-02T20:56:10.689Z,97657.59
2022-10-02T20:59:07.097Z,97651.06
2022-10-02T21:01:46.598Z,97653.63
2022-10-02T21:04:51.516Z,97658.75
2022-10-02T21:07:37.717Z,97650.47
2022-10-02T21:10:45.610Z,97644.19
2022-10-02T21:13:48.754Z,97646.34
2022-10-02T21:16:50.388Z,97663.88
2022-10-02T21:19:35.449Z,97661.31
2022-10-02T21:22:46.527Z,97653.22
2022-10-02T21:25:36.376Z,97657.97
2022-10-02T21:28:33.531Z,97639.03
2022-10-02T21:31:19.402Z,97638.22
2022-10-02T21:33:58.082Z,97632.31
2022-10-02T21:36:33.877Z,97637.25
2022-10-02T21:39:30.523Z,97642.53
2022-10-02T21:42:35.478Z,97640.91
2022-10-02T21:45:37.528Z,97631.09
2022-10-02T21:48:40.932Z,97629.50
2022-10-02T21:51:45.246Z,97609.38
2022-10-02T21:55:00.022Z,97606.38
2022-10-02T21:58:00.960Z,97600.81
2022-10-02T22:00:29.311Z,97597.19
2022-10-02T22:03:32.864Z,97596.00
2022-10-02T22:06:17.195Z,97588.47
2022-10-02T22:08:59.004Z,97587.63
2022-10-02T22:11:37.356Z,97589.03
2022-10-02T22:14:09.130Z,97583.28
2022-10-02T22:16:47.687Z,97580.09
2022-10-02T22:19:31.359Z,97579.88
2022-10-02T22:22:13.705Z,97581.03
2022-10-02T22:25:03.428Z,97572.34
2022-10-02T22:27:58.701Z,97574.28
2022-10-02T22:30:28.506Z,97572.50
2022-10-02T22:33:17.170Z,97568.72
2022-10-02T22:36:09.062Z,97573.22
2022-10-02T22:38:37.949Z,97559.56
2022-10-02T22:41:17.954Z,97557.59
2022-10-02T22:43:51.507Z,97546.13
2022-10-02T22:46:29.537Z,97551.56
2022-10-02T22:49:00.839Z,97538.09
2022-10-02T22:51:37.926Z,97532.91
2022-10-02T22:54:18.381Z,97526.13
2022-10-02T22:56:53.263Z,97507.25
2022-10-02T22:59:29.932Z,97529.53
2022-10-02T23:02:04.568Z,97521.44
2022-10-02T23:04:39.363Z,97521.78
2022-10-02T23:07:14.141Z,97511.88
2022-10-02T23:09:50.304Z,97493.47
2022-10-02T23:12:27.954Z,97490.41
2022-10-02T23:15:15.318Z,97490.34
2022-10-02T23:17:45.830Z,97483.91
2022-10-02T23:20:19.917Z,97489.81
2022-10-02T23:22:53.117Z,97486.16
2022-10-02T23:25:28.017Z,97467.06
2022-10-02T23:28:02.602Z,97472.13
2022-10-02T23:30:36.443Z,97469.91
2022-10-02T23:33:14.178Z,97461.78
2022-10-02T23:35:49.026Z,97460.34
2022-10-02T23:38:23.934Z,97425.72
2022-10-02T23:41:21.254Z,97444.03
2022-10-02T23:44:01.599Z,97442.25
2022-10-02T23:46:33.847Z,97422.28
2022-10-02T23:49:02.479Z,97426.97
2022-10-02T23:51:41.587Z,97428.75
2022-10-02T23:54:34.739Z,97403.41
2022-10-02T23:57:20.986Z,97414.38
